createdAt,value
2022-12-18T00:01:34.381Z,9.73
2022-12-18T00:04:03.139Z,10.38
2022-12-18T00:06:30.701Z,10.27
2022-12-18T00:08:58.731Z,11.38
2022-12-18T00:11:29.412Z,11.57
2022-12-18T00:13:57.710Z,12.85
2022-12-18T00:16:26.723Z,12.13
2022-12-18T00:18:56.237Z,11.45
2022-12-18T00:21:23.380Z,11.30
2022-12-18T00:23:54.522Z,10.07
2022-12-18T00:26:25.501Z,10.60
2022-12-18T00:28:56.576Z,10.40
2022-12-18T00:31:24.796Z,11.15
2022-12-18T00:33:53.974Z,10.60
2022-12-18T00:36:24.783Z,10.88
2022-12-18T00:38:51.739Z,11.57
2022-12-18T00:41:39.425Z,10.15
2022-12-18T00:44:07.621Z,10.10
2022-12-18T00:46:34.709Z,9.68
2022-12-18T00:49:01.419Z,9.73
2022-12-18T00:51:27.944Z,8.23
2022-12-18T00:53:55.969Z,7.80
2022-12-18T00:56:22.987Z,6.00
2022-12-18T00:58:49.462Z,5.25
2022-12-18T01:01:16.584Z,6.00
2022-12-18T01:03:47.628Z,5.63
2022-12-18T01:06:17.697Z,5.22
2022-12-18T01:08:44.749Z,4.97
2022-12-18T01:11:16.870Z,4.60
2022-12-18T01:13:43.915Z,4.22
2022-12-18T01:16:16.948Z,4.30
2022-12-18T01:18:43.503Z,3.83
2022-12-18T01:21:12.957Z,4.43
2022-12-18T01:23:41.575Z,3.83
2022-12-18T01:26:16.076Z,3.70
2022-12-18T01:28:44.750Z,3.63
2022-12-18T01:31:22.608Z,3.95
2022-12-18T01:33:49.633Z,3.90
2022-12-18T01:36:37.134Z,3.78
2022-12-18T01:39:14.032Z,3.67
2022-12-18T01:41:59.924Z,3.80
2022-12-18T01:45:03.825Z,4.05
2022-12-18T01:47:47.783Z,4.65
2022-12-18T01:50:18.871Z,3.97
2022-12-18T01:53:16.790Z,4.47
2022-12-18T01:55:49.415Z,4.15
2022-12-18T01:58:16.537Z,4.65
2022-12-18T02:00:43.187Z,5.30
2022-12-18T02:03:13.102Z,4.88
2022-12-18T02:05:52.076Z,5.10
2022-12-18T02:08:34.859Z,4.57
2022-12-18T02:11:16.530Z,4.70
2022-12-18T02:14:29.028Z,5.05
2022-12-18T02:17:01.406Z,5.40
2022-12-18T02:19:33.786Z,4.93
2022-12-18T02:22:15.559Z,4.68
2022-12-18T02:24:56.083Z,4.22
2022-12-18T02:27:22.753Z,4.65
2022-12-18T02:29:58.214Z,4.32
2022-12-18T02:32:32.714Z,4.72
2022-12-18T02:35:01.776Z,4.70
2022-12-18T02:37:30.604Z,4.18
2022-12-18T02:40:02.692Z,4.90
2022-12-18T02:42:29.278Z,4.80
2022-12-18T02:44:55.800Z,5.05
2022-12-18T02:47:27.026Z,4.43
2022-12-18T02:50:19.947Z,4.93
2022-12-18T02:53:04.845Z,4.95
2022-12-18T02:55:55.292Z,4.93
2022-12-18T02:58:25.584Z,4.63
2022-12-18T03:01:25.323Z,4.53
2022-12-18T03:04:15.438Z,4.10
2022-12-18T03:06:49.183Z,4.05
2022-12-18T03:09:25.792Z,3.90
2022-12-18T03:12:24.415Z,4.22
2022-12-18T03:15:01.747Z,4.70
2022-12-18T03:17:31.621Z,4.13
2022-12-18T03:20:03.306Z,4.50
2022-12-18T03:25:01.561Z,4.30
2022-12-18T03:27:30.695Z,5.50
2022-12-18T03:30:08.541Z,4.80
2022-12-18T03:33:09.891Z,4.57
2022-12-18T03:35:42.806Z,4.18
2022-12-18T03:38:13.970Z,4.88
2022-12-18T03:40:58.065Z,4.45
2022-12-18T03:43:27.477Z,4.65
2022-12-18T03:46:03.554Z,4.25
2022-12-18T03:48:40.150Z,3.63
2022-12-18T03:51:16.172Z,4.22
2022-12-18T03:53:59.299Z,3.95
2022-12-18T03:56:30.552Z,4.07
2022-12-18T03:58:58.919Z,3.65
2022-12-18T04:01:32.941Z,3.33
2022-12-18T04:04:05.472Z,3.58
2022-12-18T04:06:33.167Z,3.50
2022-12-18T04:09:00.118Z,3.10
2022-12-18T04:11:26.866Z,3.45
2022-12-18T04:13:58.532Z,3.17
2022-12-18T04:18:51.949Z,2.95
2022-12-18T04:21:18.465Z,2.78
2022-12-18T04:23:44.897Z,3.00
2022-12-18T04:26:11.408Z,2.92
2022-12-18T04:28:37.952Z,3.47
2022-12-18T04:31:04.581Z,2.30
2022-12-18T04:33:31.087Z,2.50
2022-12-18T04:35:57.642Z,2.30
2022-12-18T04:38:24.069Z,2.33
2022-12-18T04:40:50.506Z,2.38
2022-12-18T04:43:17.145Z,2.50
2022-12-18T04:45:43.708Z,2.50
2022-12-18T04:48:10.315Z,2.30
2022-12-18T04:50:37.477Z,2.30
2022-12-18T04:53:04.074Z,2.20
2022-12-18T04:55:33.642Z,2.17
2022-12-18T04:58:00.153Z,2.90
2022-12-18T05:00:26.586Z,2.58
2022-12-18T05:02:53.501Z,2.25
2022-12-18T05:05:20.066Z,2.10
2022-12-18T05:07:46.643Z,2.45
2022-12-18T05:10:13.175Z,2.20
2022-12-18T05:12:58.945Z,2.50
2022-12-18T05:15:33.179Z,2.22
2022-12-18T05:18:00.537Z,2.47
2022-12-18T05:20:28.160Z,2.60
2022-12-18T05:22:55.603Z,2.70
2022-12-18T05:25:23.128Z,3.28
2022-12-18T05:27:49.771Z,4.82
2022-12-18T05:30:17.370Z,4.13
2022-12-18T05:32:44.211Z,3.90
2022-12-18T05:35:11.720Z,4.00
2022-12-18T05:37:42.903Z,3.40
2022-12-18T05:40:10.961Z,2.75
2022-12-18T05:42:37.561Z,3.03
2022-12-18T05:45:07.718Z,3.13
2022-12-18T05:47:34.975Z,2.50
2022-12-18T05:50:01.406Z,2.30
2022-12-18T05:52:27.976Z,2.88
2022-12-18T05:54:54.526Z,2.92
2022-12-18T05:57:20.976Z,2.45
2022-12-18T05:59:47.503Z,2.25
2022-12-18T06:02:14.076Z,2.58
2022-12-18T06:04:40.728Z,2.92
2022-12-18T06:07:07.198Z,6.10
2022-12-18T06:09:33.644Z,10.88
2022-12-18T06:12:00.139Z,9.70
2022-12-18T06:14:26.739Z,9.45
2022-12-18T06:16:53.358Z,7.80
2022-12-18T06:19:19.897Z,11.32
2022-12-18T06:21:46.764Z,6.90
2022-12-18T06:24:13.375Z,5.60
2022-12-18T06:26:40.388Z,5.10
2022-12-18T06:29:06.991Z,10.55
2022-12-18T06:31:33.941Z,8.77
2022-12-18T06:34:03.533Z,8.43
2022-12-18T06:36:30.499Z,8.30
2022-12-18T06:38:57.321Z,7.55
2022-12-18T06:41:24.113Z,9.70
2022-12-18T06:43:52.191Z,8.77
2022-12-18T06:46:21.200Z,6.20
2022-12-18T06:48:49.828Z,5.32
2022-12-18T06:51:20.808Z,5.45
2022-12-18T06:53:47.512Z,4.47
2022-12-18T06:56:13.969Z,5.55
2022-12-18T06:58:40.547Z,5.90
2022-12-18T07:01:09.499Z,5.43
2022-12-18T07:03:36.437Z,5.10
2022-12-18T07:06:03.350Z,5.93
2022-12-18T07:08:31.238Z,7.15
2022-12-18T07:10:57.709Z,9.63
2022-12-18T07:13:24.423Z,12.90
2022-12-18T07:15:51.036Z,17.30
2022-12-18T07:18:17.513Z,21.15
2022-12-18T07:20:43.956Z,18.90
2022-12-18T07:23:10.490Z,16.63
2022-12-18T07:25:37.954Z,15.48
2022-12-18T07:28:04.822Z,13.52
2022-12-18T07:30:31.415Z,19.58
2022-12-18T07:32:57.880Z,14.55
2022-12-18T07:35:25.329Z,14.02
2022-12-18T07:37:52.098Z,12.65
2022-12-18T07:40:18.631Z,34.00
2022-12-18T07:42:48.071Z,32.42
2022-12-18T07:45:14.544Z,22.02
2022-12-18T07:47:42.265Z,19.05
2022-12-18T07:50:09.145Z,18.35
2022-12-18T07:52:35.592Z,20.77
2022-12-18T07:55:02.156Z,27.35
2022-12-18T07:57:49.361Z,18.77
2022-12-18T08:00:15.600Z,16.23
2022-12-18T08:02:42.275Z,16.17
2022-12-18T08:05:11.944Z,17.63
2022-12-18T08:07:41.218Z,14.13
2022-12-18T08:10:08.271Z,14.70
2022-12-18T08:12:34.785Z,10.70
2022-12-18T08:15:01.576Z,11.65
2022-12-18T08:17:31.314Z,12.73
2022-12-18T08:19:57.800Z,12.57
2022-12-18T08:22:24.460Z,9.30
2022-12-18T08:24:50.989Z,9.18
2022-12-18T08:27:32.775Z,8.70
2022-12-18T08:29:59.478Z,8.68
2022-12-18T08:32:27.286Z,8.57
2022-12-18T08:34:53.772Z,8.25
2022-12-18T08:37:20.739Z,7.88
2022-12-18T08:39:47.269Z,8.32
2022-12-18T08:42:32.234Z,8.43
2022-12-18T08:44:58.676Z,10.02
2022-12-18T08:47:26.898Z,8.60
2022-12-18T08:49:53.342Z,10.15
2022-12-18T08:52:19.852Z,10.40
2022-12-18T08:54:46.338Z,10.98
2022-12-18T08:57:12.904Z,11.63
2022-12-18T08:59:39.361Z,8.45
2022-12-18T09:02:06.089Z,7.65
2022-12-18T09:04:32.702Z,6.95
2022-12-18T09:06:59.126Z,6.35
2022-12-18T09:09:25.682Z,4.18
2022-12-18T09:11:52.180Z,4.78
2022-12-18T09:14:18.669Z,3.90
2022-12-18T09:16:45.166Z,3.47
2022-12-18T09:19:11.907Z,2.80
2022-12-18T09:21:46.121Z,3.03
2022-12-18T09:24:15.499Z,2.17
2022-12-18T09:26:43.490Z,2.60
2022-12-18T09:31:40.475Z,2.47
2022-12-18T09:34:07.472Z,2.72
2022-12-18T09:36:34.174Z,2.40
2022-12-18T09:39:03.847Z,2.35
2022-12-18T09:41:54.719Z,2.38
2022-12-18T09:44:26.485Z,2.47
2022-12-18T09:49:35.975Z,3.10
2022-12-18T09:52:38.449Z,6.28
2022-12-18T09:55:23.921Z,9.75
2022-12-18T09:57:55.936Z,8.68
2022-12-18T10:00:24.623Z,9.10
2022-12-18T10:02:55.568Z,8.57
2022-12-18T10:05:37.437Z,8.57
2022-12-18T10:11:02.434Z,7.53
2022-12-18T10:13:41.055Z,7.80
2022-12-18T10:16:18.777Z,7.85
2022-12-18T10:19:16.266Z,8.07
2022-12-18T10:22:15.171Z,7.80
2022-12-18T10:25:06.259Z,7.55
2022-12-18T10:27:33.569Z,6.18
2022-12-18T10:30:02.160Z,4.82
2022-12-18T10:32:31.480Z,4.35
2022-12-18T10:35:00.813Z,4.75
2022-12-18T10:37:29.922Z,4.05
2022-12-18T10:40:22.311Z,3.55
2022-12-18T10:43:05.090Z,3.28
2022-12-18T10:45:31.578Z,3.30
2022-12-18T10:47:59.016Z,5.00
2022-12-18T10:50:47.176Z,6.57
2022-12-18T10:55:48.330Z,7.32
2022-12-18T10:58:26.578Z,7.50
2022-12-18T11:01:22.786Z,4.80
2022-12-18T11:04:00.330Z,6.40
2022-12-18T11:06:29.038Z,6.05
2022-12-18T11:09:13.359Z,10.82
2022-12-18T11:11:41.753Z,12.02
2022-12-18T11:14:20.025Z,13.30
2022-12-18T11:19:40.682Z,12.70
2022-12-18T11:22:29.624Z,13.57
2022-12-18T11:25:32.133Z,14.95
2022-12-18T11:28:00.430Z,15.73
2022-12-18T11:30:28.908Z,17.77
2022-12-18T11:33:01.945Z,17.52
2022-12-18T11:35:38.871Z,17.58
2022-12-18T11:38:20.261Z,16.63
2022-12-18T11:40:52.622Z,12.65
2022-12-18T11:43:31.491Z,15.15
2022-12-18T11:46:06.336Z,15.05
2022-12-18T11:48:46.056Z,15.05
2022-12-18T11:51:24.942Z,13.82
2022-12-18T11:53:53.603Z,12.90
2022-12-18T11:56:40.246Z,12.77
2022-12-18T11:59:23.420Z,13.02
2022-12-18T12:01:54.607Z,13.40
2022-12-18T12:04:33.162Z,14.30
2022-12-18T12:07:03.127Z,13.50
2022-12-18T12:09:58.750Z,14.30
2022-12-18T12:12:49.394Z,14.50
2022-12-18T12:15:26.843Z,13.80
2022-12-18T12:18:38.999Z,14.07
2022-12-18T12:21:23.632Z,15.20
2022-12-18T12:24:21.558Z,15.00
2022-12-18T12:27:24.099Z,14.27
2022-12-18T12:30:08.455Z,14.32
2022-12-18T12:32:45.662Z,13.18
2022-12-18T12:35:53.782Z,12.52
2022-12-18T12:38:36.491Z,11.93
2022-12-18T12:41:06.630Z,12.95
2022-12-18T12:43:50.427Z,12.95
2022-12-18T12:46:22.378Z,13.60
2022-12-18T12:48:49.138Z,13.38
2022-12-18T12:51:22.772Z,12.43
2022-12-18T12:53:50.997Z,13.68
2022-12-18T12:56:20.252Z,13.20
2022-12-18T12:58:50.335Z,15.25
2022-12-18T13:01:42.077Z,13.90
2022-12-18T13:04:32.522Z,13.75
2022-12-18T13:07:07.866Z,14.95
2022-12-18T13:09:36.826Z,16.25
2022-12-18T13:12:30.608Z,16.55
2022-12-18T13:15:22.625Z,16.48
2022-12-18T13:17:49.513Z,15.70
2022-12-18T13:20:19.302Z,17.95
2022-12-18T13:22:48.728Z,18.35
2022-12-18T13:25:34.730Z,18.60
2022-12-18T13:28:02.725Z,17.15
2022-12-18T13:30:32.564Z,17.48
2022-12-18T13:33:14.241Z,17.10
2022-12-18T13:38:31.536Z,18.02
2022-12-18T13:41:26.465Z,18.92
2022-12-18T13:44:00.286Z,18.83
2022-12-18T13:46:28.723Z,21.10
2022-12-18T13:49:06.356Z,19.80
2022-12-18T13:51:36.101Z,20.75
2022-12-18T13:54:21.376Z,19.17
2022-12-18T13:56:52.257Z,18.75
2022-12-18T13:59:22.270Z,20.10
2022-12-18T14:01:57.861Z,19.38
2022-12-18T14:04:24.950Z,19.27
2022-12-18T14:06:56.262Z,20.90
2022-12-18T14:09:30.437Z,20.20
2022-12-18T14:12:19.740Z,20.83
2022-12-18T14:14:49.152Z,17.50
2022-12-18T14:19:50.869Z,19.80
2022-12-18T14:22:21.145Z,23.23
2022-12-18T14:25:05.358Z,28.02
2022-12-18T14:27:31.843Z,22.58
2022-12-18T14:29:59.196Z,23.85
2022-12-18T14:32:32.740Z,24.13
2022-12-18T14:34:59.794Z,20.67
2022-12-18T14:37:28.006Z,20.83
2022-12-18T14:40:02.172Z,21.42
2022-12-18T14:42:31.408Z,22.00
2022-12-18T14:45:43.170Z,21.13
2022-12-18T14:48:20.706Z,22.38
2022-12-18T14:50:59.422Z,22.27
2022-12-18T14:53:42.263Z,22.40
2022-12-18T14:56:24.815Z,23.83
2022-12-18T14:58:57.805Z,23.90
2022-12-18T15:01:52.512Z,24.40
2022-12-18T15:04:27.252Z,23.63
2022-12-18T15:07:18.755Z,22.52
2022-12-18T15:12:38.217Z,24.05
2022-12-18T15:15:06.566Z,23.02
2022-12-18T15:17:33.140Z,25.25
2022-12-18T15:20:10.052Z,21.75
2022-12-18T15:22:39.731Z,26.38
2022-12-18T15:25:32.434Z,24.60
2022-12-18T15:27:59.135Z,26.88
2022-12-18T15:30:26.464Z,25.15
2022-12-18T15:33:18.401Z,25.15
2022-12-18T15:35:47.153Z,23.45
2022-12-18T15:38:13.856Z,24.98
2022-12-18T15:40:40.416Z,26.10
2022-12-18T15:43:27.895Z,26.55
2022-12-18T15:45:54.420Z,41.85
2022-12-18T15:48:24.640Z,32.70
2022-12-18T15:50:52.903Z,26.98
2022-12-18T15:53:19.967Z,25.00
2022-12-18T15:56:05.090Z,24.67
2022-12-18T15:58:31.577Z,25.08
2022-12-18T16:01:00.497Z,24.25
2022-12-18T16:03:27.301Z,23.90
2022-12-18T16:05:53.981Z,32.25
2022-12-18T16:08:20.768Z,27.65
2022-12-18T16:10:47.358Z,30.15
2022-12-18T16:13:19.227Z,34.53
2022-12-18T16:15:45.809Z,34.38
2022-12-18T16:18:12.289Z,33.53
2022-12-18T16:20:39.621Z,33.55
2022-12-18T16:23:06.066Z,32.38
2022-12-18T16:25:32.960Z,30.88
2022-12-18T16:27:59.568Z,25.05
2022-12-18T16:30:33.089Z,28.10
2022-12-18T16:33:05.782Z,24.05
2022-12-18T16:35:33.964Z,24.77
2022-12-18T16:38:00.720Z,25.92
2022-12-18T16:40:27.242Z,22.83
2022-12-18T16:42:53.814Z,22.70
2022-12-18T16:45:20.429Z,22.17
2022-12-18T16:47:46.936Z,21.58
2022-12-18T16:50:16.242Z,14.27
2022-12-18T16:52:42.815Z,21.40
2022-12-18T16:55:09.609Z,17.77
2022-12-18T16:57:36.112Z,16.52
2022-12-18T17:00:05.825Z,18.60
2022-12-18T17:02:32.814Z,17.98
2022-12-18T17:04:59.726Z,21.35
2022-12-18T17:07:27.137Z,16.40
2022-12-18T17:09:54.414Z,17.48
2022-12-18T17:12:21.228Z,17.70
2022-12-18T17:14:47.761Z,18.33
2022-12-18T17:17:23.036Z,16.33
2022-12-18T17:19:51.194Z,17.27
2022-12-18T17:22:17.837Z,18.80
2022-12-18T17:24:44.322Z,17.15
2022-12-18T17:27:10.888Z,17.85
2022-12-18T17:29:40.114Z,17.55
2022-12-18T17:32:10.383Z,17.67
2022-12-18T17:34:37.633Z,16.50
2022-12-18T17:37:04.153Z,14.90
2022-12-18T17:39:30.835Z,14.77
2022-12-18T17:41:59.420Z,14.25
2022-12-18T17:44:25.855Z,15.75
2022-12-18T17:46:52.476Z,15.32
2022-12-18T17:49:22.220Z,13.82
2022-12-18T17:51:49.044Z,16.23
2022-12-18T17:54:15.715Z,16.80
2022-12-18T17:56:42.518Z,16.38
2022-12-18T17:59:09.493Z,18.73
2022-12-18T18:01:42.427Z,15.40
2022-12-18T18:04:10.986Z,17.13
2022-12-18T18:06:38.860Z,16.75
2022-12-18T18:09:06.063Z,18.10
2022-12-18T18:11:53.222Z,18.30
2022-12-18T18:14:21.863Z,17.20
2022-12-18T18:16:54.059Z,17.85
2022-12-18T18:19:24.472Z,17.70
2022-12-18T18:21:53.217Z,17.85
2022-12-18T18:24:23.591Z,19.10
2022-12-18T18:26:50.782Z,18.02
2022-12-18T18:29:20.237Z,17.02
2022-12-18T18:31:47.692Z,17.05
2022-12-18T18:34:21.035Z,21.50
2022-12-18T18:36:47.620Z,24.95
2022-12-18T18:39:17.677Z,18.67
2022-12-18T18:41:47.205Z,18.80
2022-12-18T18:44:15.800Z,19.15
2022-12-18T18:46:42.285Z,17.52
2022-12-18T18:49:09.547Z,19.48
2022-12-18T18:51:36.035Z,20.10
2022-12-18T18:54:02.992Z,18.70
2022-12-18T18:59:16.947Z,21.05
2022-12-18T19:01:44.094Z,17.27
2022-12-18T19:04:10.781Z,18.02
2022-12-18T19:06:37.383Z,17.88
2022-12-18T19:09:06.462Z,19.90
2022-12-18T19:11:51.745Z,19.38
2022-12-18T19:14:18.778Z,14.00
2022-12-18T19:16:45.754Z,14.88
2022-12-18T19:19:13.285Z,17.60
2022-12-18T19:21:39.963Z,19.65
2022-12-18T19:24:06.752Z,17.27
2022-12-18T19:26:33.410Z,19.05
2022-12-18T19:29:07.618Z,18.63
2022-12-18T19:31:36.746Z,18.67
2022-12-18T19:34:06.595Z,26.02
2022-12-18T19:36:36.158Z,27.58
2022-12-18T19:39:17.523Z,25.98
2022-12-18T19:41:44.593Z,20.15
2022-12-18T19:44:13.076Z,19.05
2022-12-18T19:46:41.706Z,18.90
2022-12-18T19:49:21.167Z,17.02
2022-12-18T19:51:47.652Z,17.75
2022-12-18T19:54:17.740Z,16.90
2022-12-18T19:56:49.214Z,16.85
2022-12-18T19:59:15.838Z,16.95
2022-12-18T20:01:42.429Z,16.25
2022-12-18T20:04:09.182Z,18.42
2022-12-18T20:06:47.024Z,16.83
2022-12-18T20:09:13.650Z,18.75
2022-12-18T20:11:41.930Z,13.43
2022-12-18T20:14:12.869Z,11.70
2022-12-18T20:16:39.887Z,10.63
2022-12-18T20:19:07.084Z,16.23
2022-12-18T20:21:33.984Z,10.20
2022-12-18T20:24:01.935Z,12.23
2022-12-18T20:26:28.658Z,13.05
2022-12-18T20:28:55.935Z,11.57
2022-12-18T20:31:24.133Z,12.27
2022-12-18T20:33:51.028Z,10.20
2022-12-18T20:36:22.379Z,11.80
2022-12-18T20:38:51.099Z,12.38
2022-12-18T20:41:20.133Z,12.52
2022-12-18T20:43:47.592Z,9.40
2022-12-18T20:46:16.108Z,10.73
2022-12-18T20:48:43.624Z,12.77
2022-12-18T20:51:15.703Z,12.27
2022-12-18T20:53:42.945Z,10.15
2022-12-18T20:56:17.765Z,7.18
2022-12-18T20:58:54.807Z,9.07
2022-12-18T21:01:22.937Z,8.73
2022-12-18T21:03:50.518Z,7.13
2022-12-18T21:06:22.113Z,7.68
2022-12-18T21:08:49.205Z,9.27
2022-12-18T21:11:40.532Z,11.60
2022-12-18T21:14:11.321Z,14.73
2022-12-18T21:16:38.093Z,12.43
2022-12-18T21:19:04.591Z,12.57
2022-12-18T21:21:33.277Z,12.88
2022-12-18T21:24:05.784Z,8.23
2022-12-18T21:26:32.341Z,8.02
2022-12-18T21:29:00.897Z,3.75
2022-12-18T21:31:30.675Z,4.85
2022-12-18T21:34:02.140Z,6.53
2022-12-18T21:38:57.160Z,5.18
2022-12-18T21:41:47.111Z,5.82
2022-12-18T21:44:16.451Z,3.70
2022-12-18T21:46:51.518Z,4.10
2022-12-18T21:49:22.458Z,3.88
2022-12-18T21:51:50.954Z,4.05
2022-12-18T21:54:21.514Z,3.88
2022-12-18T21:56:55.096Z,3.97
2022-12-18T21:59:27.255Z,5.53
2022-12-18T22:01:56.144Z,6.57
2022-12-18T22:04:24.805Z,6.22
2022-12-18T22:06:52.764Z,7.10
2022-12-18T22:09:24.326Z,5.70
2022-12-18T22:11:52.243Z,5.82
2022-12-18T22:14:19.317Z,5.40
2022-12-18T22:16:46.442Z,4.70
2022-12-18T22:19:14.830Z,4.85
2022-12-18T22:21:43.757Z,4.97
2022-12-18T22:24:20.056Z,5.00
2022-12-18T22:26:51.278Z,4.57
2022-12-18T22:29:41.200Z,4.82
2022-12-18T22:32:12.905Z,5.00
2022-12-18T22:34:41.591Z,5.35
2022-12-18T22:37:10.437Z,4.93
2022-12-18T22:39:36.981Z,4.88
2022-12-18T22:42:03.840Z,6.32
2022-12-18T22:44:30.346Z,6.57
2022-12-18T22:47:05.646Z,7.07
2022-12-18T22:49:35.374Z,7.38
2022-12-18T22:52:03.891Z,6.95
2022-12-18T22:54:30.940Z,7.13
2022-12-18T22:56:57.632Z,7.63
2022-12-18T22:59:24.365Z,5.35
2022-12-18T23:01:58.348Z,5.07
2022-12-18T23:04:29.311Z,5.05
2022-12-18T23:07:06.348Z,5.28
2022-12-18T23:09:36.006Z,5.03
2022-12-18T23:12:05.582Z,5.35
2022-12-18T23:14:33.838Z,5.30
2022-12-18T23:17:00.328Z,5.95
2022-12-18T23:19:26.884Z,5.78
2022-12-18T23:21:54.864Z,5.50
2022-12-18T23:24:25.300Z,5.72
2022-12-18T23:26:53.059Z,4.65
2022-12-18T23:29:19.665Z,4.85
2022-12-18T23:31:46.554Z,5.40
2022-12-18T23:34:14.592Z,5.50
2022-12-18T23:36:45.541Z,5.38
2022-12-18T23:39:15.397Z,5.80
2022-12-18T23:41:58.936Z,5.70
2022-12-18T23:44:25.814Z,5.07
2022-12-18T23:46:52.788Z,4.93
2022-12-18T23:49:19.396Z,5.25
2022-12-18T23:51:45.861Z,6.00
2022-12-18T23:54:12.853Z,5.50
2022-12-18T23:56:42.245Z,5.47
2022-12-18T23:59:08.867Z,5.65
